Terminal Aerodrome Forecast
Issued by NWS Green Bay, WI

Home | Current Version | Previous Version | Graphics & Text | Print | Product List | Glossary On
Versions: 1 2 3 4 5 6 7 8 9 10 11 12 13 14 15 16 17 18 19 20 21 22 23 24 25 26 27 28 29 30 31 32 33 34 35 36 37 38 39 40
000
FTUS43 KGRB 281727
TAFGRB
TAF
KGRB 281727Z 2818/2918 21010KT P6SM SCT050
     FM282300 14006KT P6SM SCT050 OVC120
      TEMPO 2903/2906 BKN050
     FM290800 VRB03KT 5SM BR BKN050 PROB30 2909/2913 -SHRA
     FM291300 10006KT P6SM SCT050 OVC100=

USA.gov is the U.S. government's official web portal to all federal, state and local government web resources and services.